createdAt,value
2022-10-14T00:00:23.506Z,99.99
2022-10-14T00:01:23.607Z,99.99
2022-10-14T00:02:23.484Z,99.99
2022-10-14T00:03:23.476Z,99.99
2022-10-14T00:04:23.464Z,99.99
2022-10-14T00:05:23.452Z,99.99
2022-10-14T00:06:23.451Z,99.99
2022-10-14T00:07:23.575Z,99.99
2022-10-14T00:08:23.440Z,99.99
2022-10-14T00:09:23.423Z,99.99
2022-10-14T00:10:23.416Z,99.99
2022-10-14T00:11:23.405Z,99.93
2022-10-14T00:12:23.395Z,99.99
2022-10-14T00:13:23.390Z,99.99
2022-10-14T00:14:23.390Z,99.99
2022-10-14T00:15:23.373Z,99.93
2022-10-14T00:16:23.373Z,99.99
2022-10-14T00:17:23.602Z,99.99
2022-10-14T00:18:23.353Z,99.63
2022-10-14T00:19:23.338Z,99.47
2022-10-14T00:20:23.330Z,99.47
2022-10-14T00:21:23.330Z,99.57
2022-10-14T00:22:23.314Z,99.99
2022-10-14T00:23:23.307Z,99.99
2022-10-14T00:24:23.300Z,99.88
2022-10-14T00:25:23.287Z,99.88
2022-10-14T00:26:23.281Z,99.99
2022-10-14T00:27:23.548Z,99.99
2022-10-14T00:28:23.296Z,99.72
2022-10-14T00:29:23.256Z,99.93
2022-10-14T00:30:23.244Z,99.72
2022-10-14T00:31:23.240Z,99.99
2022-10-14T00:32:23.227Z,99.99
2022-10-14T00:33:23.220Z,99.99
2022-10-14T00:34:23.213Z,99.99
2022-10-14T00:35:23.201Z,99.99
2022-10-14T00:36:23.196Z,99.99
2022-10-14T00:37:23.595Z,99.99
2022-10-14T00:38:23.189Z,99.99
2022-10-14T00:39:23.173Z,99.99
2022-10-14T00:40:23.168Z,99.99
2022-10-14T00:41:23.163Z,99.99
2022-10-14T00:42:23.153Z,99.99
2022-10-14T00:43:23.139Z,99.99
2022-10-14T00:44:23.128Z,99.99
2022-10-14T00:45:23.115Z,99.99
2022-10-14T00:46:23.109Z,99.99
2022-10-14T00:47:23.525Z,99.99
2022-10-14T00:48:23.091Z,99.99
2022-10-14T00:49:23.083Z,99.99
2022-10-14T00:50:23.079Z,99.99
2022-10-14T00:51:23.069Z,99.99
2022-10-14T00:52:23.055Z,99.99
2022-10-14T00:53:23.052Z,99.99
2022-10-14T00:54:23.047Z,99.99
2022-10-14T00:55:23.033Z,99.99
2022-10-14T00:56:23.023Z,99.99
2022-10-14T00:57:23.412Z,99.99
2022-10-14T00:58:23.007Z,99.99
2022-10-14T00:59:22.998Z,99.99
2022-10-14T01:00:23.059Z,99.99
2022-10-14T01:01:22.981Z,99.99
2022-10-14T01:02:22.993Z,99.99
2022-10-14T01:03:22.963Z,99.99
2022-10-14T01:04:22.958Z,99.99
2022-10-14T01:05:22.942Z,99.99
2022-10-14T01:06:22.942Z,99.99
2022-10-14T01:07:23.187Z,99.99
2022-10-14T01:08:22.949Z,99.99
2022-10-14T01:09:22.921Z,99.99
2022-10-14T01:10:22.903Z,99.99
2022-10-14T01:11:22.890Z,99.99
2022-10-14T01:12:28.465Z,99.99
2022-10-14T01:13:22.875Z,99.99
2022-10-14T01:14:22.889Z,99.99
2022-10-14T01:15:22.860Z,99.99
2022-10-14T01:16:22.852Z,99.99
2022-10-14T01:17:22.842Z,99.99
2022-10-14T01:18:22.834Z,99.99
2022-10-14T01:19:22.826Z,99.99
2022-10-14T01:20:22.818Z,99.99
2022-10-14T01:21:22.807Z,99.99
2022-10-14T01:22:22.832Z,99.99
2022-10-14T01:23:22.796Z,99.99
2022-10-14T01:24:22.799Z,99.99
2022-10-14T01:25:22.772Z,99.99
2022-10-14T01:26:22.761Z,99.99
2022-10-14T01:27:22.757Z,99.99
2022-10-14T01:28:22.780Z,99.99
2022-10-14T01:29:22.741Z,99.99
2022-10-14T01:30:22.732Z,99.99
2022-10-14T01:31:22.721Z,99.99
2022-10-14T01:32:22.965Z,99.99
2022-10-14T01:33:22.701Z,99.99
2022-10-14T01:34:22.694Z,99.99
2022-10-14T01:35:22.689Z,99.99
2022-10-14T01:36:22.678Z,99.99
2022-10-14T01:37:22.677Z,99.99
2022-10-14T01:38:22.657Z,99.99
2022-10-14T01:39:22.652Z,99.99
2022-10-14T01:40:22.646Z,99.99
2022-10-14T01:41:22.633Z,99.99
2022-10-14T01:42:23.093Z,99.99
2022-10-14T01:43:22.619Z,99.99
2022-10-14T01:44:22.609Z,99.99
2022-10-14T01:45:22.599Z,99.99
2022-10-14T01:46:22.592Z,99.99
2022-10-14T01:47:22.599Z,99.99
2022-10-14T01:48:22.572Z,99.99
2022-10-14T01:49:22.562Z,99.99
2022-10-14T01:50:22.560Z,99.99
2022-10-14T01:51:22.545Z,99.99
2022-10-14T01:52:22.994Z,99.99
2022-10-14T01:53:22.537Z,99.99
2022-10-14T01:54:22.517Z,99.99
2022-10-14T01:55:22.514Z,99.99
2022-10-14T01:56:22.502Z,99.99
2022-10-14T01:57:22.496Z,99.99
2022-10-14T01:58:22.488Z,99.99
2022-10-14T01:59:22.477Z,99.99
2022-10-14T02:00:22.465Z,99.99
2022-10-14T02:01:22.482Z,99.99
2022-10-14T02:02:22.727Z,99.99
2022-10-14T02:03:22.446Z,99.99
2022-10-14T02:04:22.432Z,99.99
2022-10-14T02:05:22.424Z,99.99
2022-10-14T02:06:22.418Z,99.99
2022-10-14T02:07:22.406Z,99.99
2022-10-14T02:08:22.395Z,99.99
2022-10-14T02:09:22.395Z,99.99
2022-10-14T02:10:22.379Z,99.99
2022-10-14T02:11:22.371Z,99.99
2022-10-14T02:12:22.712Z,99.99
2022-10-14T02:13:22.356Z,99.99
2022-10-14T02:14:22.346Z,99.99
2022-10-14T02:15:22.336Z,99.99
2022-10-14T02:16:22.331Z,99.99
2022-10-14T02:17:22.316Z,99.99
2022-10-14T02:18:22.308Z,99.99
2022-10-14T02:19:22.302Z,99.99
2022-10-14T02:20:22.290Z,99.99
2022-10-14T02:21:22.285Z,99.99
2022-10-14T02:22:22.669Z,99.99
2022-10-14T02:23:22.262Z,99.99
2022-10-14T02:24:22.253Z,99.99
2022-10-14T02:25:22.243Z,99.99
2022-10-14T02:26:22.237Z,99.99
2022-10-14T02:27:22.231Z,99.99
2022-10-14T02:28:22.262Z,99.99
2022-10-14T02:29:22.215Z,99.99
2022-10-14T02:30:22.201Z,99.99
2022-10-14T02:31:22.194Z,99.99
2022-10-14T02:32:22.520Z,99.99
2022-10-14T02:33:22.173Z,99.99
2022-10-14T02:34:22.167Z,99.99
2022-10-14T02:35:22.158Z,99.99
2022-10-14T02:36:22.144Z,99.99
2022-10-14T02:37:22.140Z,99.99
2022-10-14T02:38:22.130Z,99.99
2022-10-14T02:39:22.119Z,99.99
2022-10-14T02:40:22.121Z,99.99
2022-10-14T02:41:22.101Z,99.99
2022-10-14T02:42:22.354Z,99.99
2022-10-14T02:43:22.082Z,99.99
2022-10-14T02:44:22.073Z,99.99
2022-10-14T02:45:22.065Z,99.99
2022-10-14T02:46:22.064Z,99.99
2022-10-14T02:47:22.048Z,99.99
2022-10-14T02:48:22.041Z,99.99
2022-10-14T02:49:22.028Z,99.99
2022-10-14T02:50:22.019Z,99.99
2022-10-14T02:51:22.018Z,99.99
2022-10-14T02:52:22.300Z,99.99
2022-10-14T02:53:21.992Z,99.99
2022-10-14T02:54:21.981Z,99.99
2022-10-14T02:55:21.970Z,99.99
2022-10-14T02:56:21.976Z,99.99
2022-10-14T02:57:21.956Z,99.99
2022-10-14T02:58:21.948Z,99.99
2022-10-14T02:59:21.943Z,99.99
2022-10-14T03:00:21.932Z,99.99
2022-10-14T03:01:21.968Z,99.99
2022-10-14T03:02:22.305Z,99.99
2022-10-14T03:03:21.901Z,99.99
2022-10-14T03:04:21.900Z,99.99
2022-10-14T03:05:21.884Z,99.99
2022-10-14T03:06:21.873Z,99.99
2022-10-14T03:07:21.869Z,99.99
2022-10-14T03:08:21.853Z,99.99
2022-10-14T03:09:21.846Z,99.99
2022-10-14T03:10:21.842Z,99.99
2022-10-14T03:11:21.830Z,99.99
2022-10-14T03:12:22.155Z,99.99
2022-10-14T03:13:21.807Z,99.99
2022-10-14T03:14:21.801Z,99.99
2022-10-14T03:15:21.791Z,99.99
2022-10-14T03:16:21.783Z,99.99
2022-10-14T03:17:21.775Z,99.99
2022-10-14T03:18:21.769Z,99.99
2022-10-14T03:19:21.757Z,99.99
2022-10-14T03:20:21.754Z,99.99
2022-10-14T03:21:21.738Z,99.99
2022-10-14T03:22:22.077Z,99.99
2022-10-14T03:23:21.721Z,99.99
2022-10-14T03:24:21.715Z,99.99
2022-10-14T03:25:21.704Z,99.99
2022-10-14T03:26:21.695Z,99.99
2022-10-14T03:27:21.681Z,99.99
2022-10-14T03:28:21.729Z,99.99
2022-10-14T03:29:21.678Z,99.99
2022-10-14T03:30:21.658Z,99.99
2022-10-14T03:31:21.655Z,99.99
2022-10-14T03:32:21.858Z,99.99
2022-10-14T03:33:24.517Z,99.99
2022-10-14T03:34:21.621Z,99.99
2022-10-14T03:35:21.611Z,99.99
2022-10-14T03:36:21.603Z,99.99
2022-10-14T03:37:21.594Z,99.99
2022-10-14T03:38:21.587Z,99.99
2022-10-14T03:39:21.582Z,99.99
2022-10-14T03:40:21.569Z,99.99
2022-10-14T03:41:21.558Z,99.99
2022-10-14T03:42:21.729Z,99.99
2022-10-14T03:43:21.540Z,99.99
2022-10-14T03:44:21.535Z,99.99
2022-10-14T03:45:21.522Z,99.99
2022-10-14T03:46:21.510Z,99.99
2022-10-14T03:47:21.512Z,99.99
2022-10-14T03:48:21.499Z,99.99
2022-10-14T03:49:21.486Z,99.99
2022-10-14T03:50:21.482Z,99.99
2022-10-14T03:51:21.471Z,99.99
2022-10-14T03:52:21.721Z,99.99
2022-10-14T03:53:21.447Z,99.99
2022-10-14T03:54:21.441Z,99.99
2022-10-14T03:55:21.442Z,99.99
2022-10-14T03:56:21.423Z,99.99
2022-10-14T03:57:21.414Z,99.99
2022-10-14T03:58:21.407Z,99.99
2022-10-14T03:59:21.394Z,99.99
2022-10-14T04:00:21.391Z,99.99
2022-10-14T04:01:21.464Z,99.99
2022-10-14T04:02:21.695Z,99.99
2022-10-14T04:03:21.362Z,99.99
2022-10-14T04:04:21.357Z,99.99
2022-10-14T04:05:21.355Z,99.99
2022-10-14T04:06:21.332Z,99.99
2022-10-14T04:07:21.323Z,99.99
2022-10-14T04:08:21.320Z,99.99
2022-10-14T04:09:21.305Z,99.99
2022-10-14T04:10:21.297Z,99.99
2022-10-14T04:11:21.290Z,99.99
2022-10-14T04:12:21.604Z,99.99
2022-10-14T04:13:21.270Z,99.99
2022-10-14T04:14:21.261Z,99.99
2022-10-14T04:15:21.265Z,99.99
2022-10-14T04:16:21.253Z,99.99
2022-10-14T04:17:21.234Z,99.99
2022-10-14T04:18:21.222Z,99.99
2022-10-14T04:19:21.213Z,99.99
2022-10-14T04:20:21.208Z,99.99
2022-10-14T04:21:21.196Z,99.99
2022-10-14T04:22:21.475Z,99.99
2022-10-14T04:23:21.178Z,99.99
2022-10-14T04:24:21.171Z,99.99
2022-10-14T04:25:21.158Z,99.99
2022-10-14T04:26:21.151Z,99.99
2022-10-14T04:27:21.145Z,99.99
2022-10-14T04:28:21.161Z,99.99
2022-10-14T04:29:21.122Z,99.99
2022-10-14T04:30:21.113Z,99.99
2022-10-14T04:31:21.102Z,99.99
2022-10-14T04:32:21.415Z,99.99
2022-10-14T04:33:21.085Z,99.99
2022-10-14T04:34:21.076Z,99.99
2022-10-14T04:35:21.079Z,99.99
2022-10-14T04:36:21.068Z,99.99
2022-10-14T04:37:21.044Z,99.99
2022-10-14T04:38:21.039Z,99.99
2022-10-14T04:39:21.027Z,99.99
2022-10-14T04:40:21.019Z,99.99
2022-10-14T04:41:21.015Z,99.99
2022-10-14T04:42:21.336Z,99.99
2022-10-14T04:43:21.002Z,99.99
2022-10-14T04:44:20.981Z,99.99
2022-10-14T04:45:20.974Z,99.99
2022-10-14T04:46:20.963Z,99.99
2022-10-14T04:47:20.955Z,99.99
2022-10-14T04:48:20.947Z,99.99
2022-10-14T04:49:20.937Z,99.99
2022-10-14T04:50:20.929Z,99.99
2022-10-14T04:51:20.920Z,99.99
2022-10-14T04:52:21.095Z,99.99
2022-10-14T04:53:22.355Z,99.99
2022-10-14T04:54:20.889Z,99.99
2022-10-14T04:55:20.882Z,99.99
2022-10-14T04:56:20.868Z,99.99
2022-10-14T04:57:20.863Z,99.99
2022-10-14T04:58:20.853Z,99.99
2022-10-14T04:59:20.844Z,99.99
2022-10-14T05:00:20.838Z,99.99
2022-10-14T05:01:20.892Z,99.99
2022-10-14T05:02:21.092Z,99.99
2022-10-14T05:03:20.808Z,99.99
2022-10-14T05:04:20.799Z,99.99
2022-10-14T05:05:20.786Z,99.99
2022-10-14T05:06:20.780Z,99.99
2022-10-14T05:07:20.773Z,99.99
2022-10-14T05:08:20.765Z,99.99
2022-10-14T05:09:20.749Z,99.99
2022-10-14T05:10:20.742Z,99.99
2022-10-14T05:11:20.737Z,99.99
2022-10-14T05:12:20.991Z,99.99
2022-10-14T05:13:20.711Z,99.99
2022-10-14T05:14:20.707Z,99.99
2022-10-14T05:15:20.693Z,99.99
2022-10-14T05:16:20.687Z,99.99
2022-10-14T05:17:20.678Z,99.99
2022-10-14T05:18:20.671Z,99.99
2022-10-14T05:19:20.661Z,99.99
2022-10-14T05:20:20.654Z,99.99
2022-10-14T05:21:20.644Z,99.99
2022-10-14T05:22:20.908Z,99.99
2022-10-14T05:23:20.623Z,99.99
2022-10-14T05:24:20.618Z,99.99
2022-10-14T05:25:20.604Z,99.99
2022-10-14T05:26:20.594Z,99.99
2022-10-14T05:27:20.590Z,99.99
2022-10-14T05:28:20.623Z,99.99
2022-10-14T05:29:20.569Z,99.99
2022-10-14T05:30:20.561Z,99.99
2022-10-14T05:31:20.553Z,99.99
2022-10-14T05:32:20.919Z,99.99
2022-10-14T05:33:20.538Z,99.99
2022-10-14T05:34:20.524Z,99.99
2022-10-14T05:35:39.800Z,99.99
2022-10-14T05:36:20.506Z,99.99
2022-10-14T05:37:20.502Z,99.99
2022-10-14T05:38:20.493Z,99.99
2022-10-14T05:39:20.479Z,99.99
2022-10-14T05:40:20.472Z,99.99
2022-10-14T05:41:20.462Z,99.99
2022-10-14T05:42:20.682Z,99.99
2022-10-14T05:43:20.446Z,99.99
2022-10-14T05:44:20.439Z,99.99
2022-10-14T05:45:20.461Z,99.99
2022-10-14T05:46:20.417Z,99.99
2022-10-14T05:47:20.420Z,99.99
2022-10-14T05:48:20.401Z,99.99
2022-10-14T05:49:20.388Z,99.99
2022-10-14T05:50:20.387Z,99.99
2022-10-14T05:51:20.375Z,99.99
2022-10-14T05:52:20.790Z,99.99
2022-10-14T05:53:20.360Z,99.99
2022-10-14T05:54:20.394Z,99.99
2022-10-14T05:55:20.339Z,99.99
2022-10-14T05:56:20.337Z,99.99
2022-10-14T05:57:20.320Z,99.99
2022-10-14T05:58:20.315Z,99.99
2022-10-14T05:59:20.302Z,99.99
2022-10-14T06:00:24.795Z,99.99
2022-10-14T06:01:20.281Z,99.99
2022-10-14T06:02:20.765Z,99.99
2022-10-14T06:03:20.313Z,99.99
2022-10-14T06:04:20.265Z,99.99
2022-10-14T06:05:20.252Z,99.99
2022-10-14T06:06:21.647Z,99.99
2022-10-14T06:07:20.230Z,99.99
2022-10-14T06:08:20.226Z,99.99
2022-10-14T06:09:20.217Z,99.99
2022-10-14T06:10:20.207Z,99.99
2022-10-14T06:11:20.197Z,99.99
2022-10-14T06:12:20.500Z,99.99
2022-10-14T06:13:20.176Z,99.99
2022-10-14T06:14:20.172Z,99.99
2022-10-14T06:15:20.160Z,99.99
2022-10-14T06:16:20.166Z,99.99
2022-10-14T06:17:20.147Z,99.99
2022-10-14T06:18:20.138Z,99.99
2022-10-14T06:19:20.138Z,99.99
2022-10-14T06:20:20.116Z,99.99
2022-10-14T06:21:20.131Z,99.99
2022-10-14T06:22:20.472Z,99.99
2022-10-14T06:23:20.094Z,99.99
2022-10-14T06:24:20.085Z,99.99
2022-10-14T06:25:20.075Z,99.99
2022-10-14T06:26:20.070Z,99.99
2022-10-14T06:27:20.058Z,99.99
2022-10-14T06:28:20.118Z,99.99
2022-10-14T06:29:20.046Z,99.99
2022-10-14T06:30:20.036Z,99.99
2022-10-14T06:31:20.027Z,99.99
2022-10-14T06:32:20.463Z,99.99
2022-10-14T06:33:20.006Z,99.99
2022-10-14T06:34:20.000Z,99.99
2022-10-14T06:35:19.992Z,99.99
2022-10-14T06:36:19.985Z,99.99
2022-10-14T06:37:19.980Z,99.99
2022-10-14T06:38:19.969Z,99.99
2022-10-14T06:39:19.962Z,99.99
2022-10-14T06:40:19.946Z,99.99
2022-10-14T06:41:19.941Z,99.99
2022-10-14T06:42:19.933Z,99.99
2022-10-14T06:43:19.926Z,99.99
2022-10-14T06:44:19.923Z,99.99
2022-10-14T06:45:19.907Z,99.99
2022-10-14T06:46:19.898Z,99.99
2022-10-14T06:47:19.889Z,99.99
2022-10-14T06:48:19.891Z,99.99
2022-10-14T06:49:19.880Z,99.99
2022-10-14T06:50:19.869Z,99.99
2022-10-14T06:51:19.864Z,99.99
2022-10-14T06:52:20.063Z,99.99
2022-10-14T06:53:19.838Z,99.99
2022-10-14T06:54:19.837Z,99.99
2022-10-14T06:55:19.821Z,99.99
2022-10-14T06:56:19.820Z,99.99
2022-10-14T06:57:19.812Z,99.99
2022-10-14T06:58:19.803Z,99.99
2022-10-14T06:59:19.796Z,99.99
2022-10-14T07:00:19.781Z,99.99
2022-10-14T07:01:19.806Z,99.99
2022-10-14T07:02:20.071Z,99.99
2022-10-14T07:03:19.761Z,99.99
2022-10-14T07:04:19.752Z,99.99
2022-10-14T07:05:19.753Z,99.99
2022-10-14T07:06:19.743Z,99.99
2022-10-14T07:07:19.732Z,99.99
2022-10-14T07:08:19.723Z,99.99
2022-10-14T07:09:19.714Z,99.99
2022-10-14T07:10:19.706Z,99.99
2022-10-14T07:11:19.707Z,99.99
2022-10-14T07:12:19.966Z,99.99
2022-10-14T07:13:19.684Z,99.99
2022-10-14T07:14:19.691Z,99.99
2022-10-14T07:15:19.665Z,99.99
2022-10-14T07:16:19.661Z,99.99
2022-10-14T07:17:20.124Z,99.99
2022-10-14T07:18:19.648Z,99.99
2022-10-14T07:19:19.634Z,99.99
2022-10-14T07:20:19.634Z,99.99
2022-10-14T07:21:19.617Z,99.99
2022-10-14T07:22:19.955Z,99.99
2022-10-14T07:23:19.607Z,99.98
2022-10-14T07:24:19.598Z,99.99
2022-10-14T07:25:19.599Z,99.99
2022-10-14T07:26:19.582Z,99.98
2022-10-14T07:27:19.670Z,99.99
2022-10-14T07:28:19.669Z,99.99
2022-10-14T07:29:19.560Z,99.99
2022-10-14T07:30:19.555Z,99.93
2022-10-14T07:31:19.543Z,99.63
2022-10-14T07:32:19.538Z,99.52
2022-10-14T07:33:19.534Z,99.58
2022-10-14T07:34:19.526Z,99.58
2022-10-14T07:35:19.511Z,99.68
2022-10-14T07:36:22.346Z,99.07
2022-10-14T07:37:19.793Z,98.77
2022-10-14T07:38:19.492Z,98.36
2022-10-14T07:39:19.483Z,98.36
2022-10-14T07:40:19.479Z,98.25
2022-10-14T07:41:19.473Z,98.05
2022-10-14T07:43:19.457Z,97.74
2022-10-14T07:44:22.452Z,97.90
2022-10-14T07:45:19.440Z,97.19
2022-10-14T07:46:19.436Z,97.60
2022-10-14T07:47:19.688Z,96.78
2022-10-14T07:48:27.289Z,96.47
2022-10-14T07:49:19.412Z,96.58
2022-10-14T07:50:19.405Z,96.68
2022-10-14T07:51:19.392Z,96.37
2022-10-14T07:52:19.390Z,96.27
2022-10-14T07:53:19.380Z,95.41
2022-10-14T07:54:19.375Z,96.27
2022-10-14T07:55:19.369Z,95.92
2022-10-14T07:56:19.368Z,95.81
2022-10-14T07:57:19.743Z,95.41
2022-10-14T07:58:19.348Z,95.57
2022-10-14T07:59:19.340Z,94.65
2022-10-14T08:00:19.344Z,94.65
2022-10-14T08:01:19.397Z,94.45
2022-10-14T08:02:19.316Z,94.55
2022-10-14T08:03:19.310Z,94.24
2022-10-14T08:04:19.302Z,94.09
2022-10-14T08:05:37.122Z,93.79
2022-10-14T08:06:19.319Z,92.36
2022-10-14T08:07:19.647Z,93.07
2022-10-14T08:08:19.275Z,92.77
2022-10-14T08:09:19.320Z,92.11
2022-10-14T08:10:19.263Z,92.32
2022-10-14T08:11:19.253Z,92.22
2022-10-14T08:12:19.692Z,91.66
2022-10-14T08:13:19.241Z,91.77
2022-10-14T08:14:19.239Z,91.16
2022-10-14T08:15:19.240Z,91.46
2022-10-14T08:16:19.224Z,90.75
2022-10-14T08:17:19.211Z,90.64
2022-10-14T08:18:19.211Z,90.40
2022-10-14T08:19:19.199Z,90.09
2022-10-14T08:20:19.195Z,90.34
2022-10-14T08:21:19.192Z,89.89
2022-10-14T08:22:19.456Z,89.89
2022-10-14T08:23:19.962Z,89.89
2022-10-14T08:24:19.167Z,89.69
2022-10-14T08:25:19.161Z,89.69
2022-10-14T08:26:19.154Z,89.89
2022-10-14T08:27:19.149Z,89.85
2022-10-14T08:28:19.179Z,89.99
2022-10-14T08:29:19.136Z,89.54
2022-10-14T08:30:19.129Z,89.14
2022-10-14T08:31:19.124Z,89.14
2022-10-14T08:32:19.383Z,89.24
2022-10-14T08:33:19.115Z,89.75
2022-10-14T08:34:19.103Z,89.54
2022-10-14T08:35:19.104Z,89.34
2022-10-14T08:36:19.094Z,89.34
2022-10-14T08:37:19.084Z,88.73
2022-10-14T08:38:19.082Z,88.83
2022-10-14T08:39:19.079Z,88.98
2022-10-14T08:40:19.064Z,89.34
2022-10-14T08:41:19.057Z,89.54
2022-10-14T08:42:19.321Z,89.85
2022-10-14T08:43:19.047Z,89.64
2022-10-14T08:44:19.045Z,89.85
2022-10-14T08:45:19.035Z,90.16
2022-10-14T08:46:19.025Z,90.05
2022-10-14T08:47:19.021Z,89.95
2022-10-14T08:48:19.043Z,89.75
2022-10-14T08:49:19.006Z,88.89
2022-10-14T08:50:19.001Z,89.30
2022-10-14T08:51:18.991Z,89.09
2022-10-14T08:52:19.261Z,89.40
2022-10-14T08:53:18.982Z,88.54
2022-10-14T08:54:18.975Z,88.75
2022-10-14T08:55:18.968Z,87.84
2022-10-14T08:56:18.973Z,88.20
2022-10-14T08:57:18.958Z,88.36
2022-10-14T08:58:19.026Z,88.06
2022-10-14T08:59:18.944Z,87.65
2022-10-14T09:00:18.941Z,87.10
2022-10-14T09:01:18.939Z,85.98
2022-10-14T09:02:19.229Z,86.76
2022-10-14T09:03:18.926Z,85.44
2022-10-14T09:04:18.931Z,86.15
2022-10-14T09:05:18.906Z,85.19
2022-10-14T09:06:18.901Z,83.73
2022-10-14T09:07:18.896Z,83.63
2022-10-14T09:08:18.911Z,83.63
2022-10-14T09:09:18.886Z,83.39
2022-10-14T09:10:18.877Z,83.39
2022-10-14T09:11:18.875Z,82.68
2022-10-14T09:12:19.235Z,82.58
2022-10-14T09:13:18.864Z,82.68
2022-10-14T09:14:18.857Z,81.97
2022-10-14T09:15:18.851Z,82.28
2022-10-14T09:16:18.845Z,81.87
2022-10-14T09:17:18.841Z,82.38
2022-10-14T09:18:18.837Z,82.24
2022-10-14T09:19:18.831Z,82.75
2022-10-14T09:20:18.856Z,82.03
2022-10-14T09:21:27.830Z,82.24
2022-10-14T09:22:19.120Z,81.63
2022-10-14T09:23:18.809Z,79.40
2022-10-14T09:24:18.808Z,79.26
2022-10-14T09:25:18.797Z,79.60
2022-10-14T09:26:18.794Z,79.87
2022-10-14T09:27:18.945Z,80.88
2022-10-14T09:28:18.822Z,80.88
2022-10-14T09:29:18.780Z,79.13
2022-10-14T09:30:18.772Z,79.87
2022-10-14T09:31:18.767Z,79.93
2022-10-14T09:32:18.969Z,79.43
2022-10-14T09:33:18.756Z,79.43
2022-10-14T09:34:20.155Z,79.39
2022-10-14T09:35:18.746Z,78.88
2022-10-14T09:36:18.743Z,78.38
2022-10-14T09:37:19.224Z,79.39
2022-10-14T09:38:18.733Z,78.55
2022-10-14T09:39:18.728Z,78.95
2022-10-14T09:40:18.738Z,77.94
2022-10-14T09:41:18.720Z,77.03
2022-10-14T09:42:18.725Z,77.09
2022-10-14T09:43:18.707Z,77.39
2022-10-14T09:44:18.775Z,75.88
2022-10-14T09:45:18.697Z,77.29
2022-10-14T09:46:18.698Z,74.97
2022-10-14T09:47:18.688Z,76.02
2022-10-14T09:48:18.684Z,75.92
2022-10-14T09:49:18.682Z,77.84
2022-10-14T09:50:18.750Z,77.53
2022-10-14T09:51:18.672Z,78.04
2022-10-14T09:52:18.668Z,77.43
2022-10-14T09:53:18.663Z,76.72
2022-10-14T09:54:18.660Z,76.05
2022-10-14T09:55:18.656Z,77.13
2022-10-14T09:56:20.074Z,76.93
2022-10-14T09:57:18.648Z,76.52
2022-10-14T09:58:18.646Z,75.71
2022-10-14T09:59:18.636Z,73.90
2022-10-14T10:00:18.630Z,73.99
2022-10-14T10:01:18.629Z,74.90
2022-10-14T10:02:18.619Z,75.78
2022-10-14T10:03:18.618Z,74.06
2022-10-14T10:04:18.609Z,74.16
2022-10-14T10:05:18.607Z,73.93
2022-10-14T10:06:18.603Z,73.42
2022-10-14T10:07:18.597Z,73.75
2022-10-14T10:08:18.592Z,73.22
2022-10-14T10:09:18.590Z,73.93
2022-10-14T10:10:18.592Z,73.52
2022-10-14T10:11:18.580Z,73.02
2022-10-14T10:12:18.581Z,72.75
2022-10-14T10:13:18.578Z,72.71
2022-10-14T10:14:18.568Z,73.15
2022-10-14T10:15:18.561Z,73.46
2022-10-14T10:16:18.563Z,73.35
2022-10-14T10:17:18.571Z,73.25
2022-10-14T10:18:18.548Z,73.59
2022-10-14T10:19:18.553Z,74.06
2022-10-14T10:20:18.538Z,74.26
2022-10-14T10:21:18.539Z,73.66
2022-10-14T10:23:18.528Z,74.26
2022-10-14T10:24:18.523Z,74.37
2022-10-14T10:25:18.519Z,75.01
2022-10-14T10:26:18.516Z,74.60
2022-10-14T10:27:18.532Z,74.40
2022-10-14T10:28:18.577Z,74.90
2022-10-14T10:29:18.504Z,74.80
2022-10-14T10:30:18.500Z,74.87
2022-10-14T10:31:18.690Z,74.77
2022-10-14T10:32:18.696Z,73.86
2022-10-14T10:33:18.487Z,74.16
2022-10-14T10:34:18.481Z,74.06
2022-10-14T10:35:18.479Z,73.96
2022-10-14T10:37:18.473Z,74.46
2022-10-14T10:38:18.460Z,74.46
2022-10-14T10:39:18.462Z,74.37
2022-10-14T10:40:18.453Z,74.26
2022-10-14T10:41:18.450Z,74.13
2022-10-14T10:42:18.460Z,74.02
2022-10-14T10:43:18.443Z,74.53
2022-10-14T10:44:18.437Z,73.89
2022-10-14T10:45:18.433Z,72.68
2022-10-14T10:46:18.430Z,72.68
2022-10-14T10:47:18.425Z,72.88
2022-10-14T10:48:18.421Z,72.88
2022-10-14T10:49:18.415Z,72.88
2022-10-14T10:50:18.415Z,72.98
2022-10-14T10:51:18.415Z,74.09
2022-10-14T10:52:21.251Z,73.89
2022-10-14T10:53:18.404Z,73.99
2022-10-14T10:54:18.397Z,73.79
2022-10-14T10:55:18.400Z,73.28
2022-10-14T10:56:18.400Z,73.49
2022-10-14T10:57:18.494Z,73.89
2022-10-14T10:58:18.383Z,74.49
2022-10-14T11:00:18.423Z,73.96
2022-10-14T11:01:18.443Z,73.75
2022-10-14T11:02:18.371Z,74.46
2022-10-14T11:03:18.362Z,73.96
2022-10-14T11:04:18.356Z,72.95
2022-10-14T11:05:18.351Z,73.69
2022-10-14T11:06:18.347Z,73.89
2022-10-14T11:07:18.345Z,74.26
2022-10-14T11:08:18.339Z,73.85
2022-10-14T11:09:18.339Z,74.19
2022-10-14T11:10:18.335Z,74.60
2022-10-14T11:11:18.331Z,74.26
2022-10-14T11:12:18.330Z,73.96
2022-10-14T11:13:18.325Z,74.22
2022-10-14T11:14:18.324Z,74.63
2022-10-14T11:16:18.317Z,73.62
2022-10-14T11:17:18.307Z,73.68
2022-10-14T11:18:18.306Z,73.72
2022-10-14T11:19:18.300Z,73.28
2022-10-14T11:20:18.294Z,73.18
2022-10-14T11:21:18.296Z,73.22
2022-10-14T11:22:18.287Z,73.38
2022-10-14T11:23:18.287Z,73.18
2022-10-14T11:24:18.281Z,73.82
2022-10-14T11:25:18.275Z,73.62
2022-10-14T11:26:18.279Z,73.72
2022-10-14T11:27:21.010Z,73.72
2022-10-14T11:28:18.325Z,74.12
2022-10-14T11:29:18.262Z,73.72
2022-10-14T11:30:18.260Z,73.52
2022-10-14T11:31:18.275Z,73.62
2022-10-14T11:32:18.252Z,73.72
2022-10-14T11:33:18.249Z,74.12
2022-10-14T11:34:18.244Z,74.19
2022-10-14T11:35:18.246Z,74.59
2022-10-14T11:36:18.245Z,74.39
2022-10-14T11:37:18.237Z,72.38
2022-10-14T11:38:18.230Z,72.98
2022-10-14T11:39:18.232Z,73.68
2022-10-14T11:40:18.224Z,73.79
2022-10-14T11:41:18.218Z,73.85
2022-10-14T11:42:18.216Z,73.88
2022-10-14T11:43:18.219Z,73.79
2022-10-14T11:44:18.209Z,74.49
2022-10-14T11:45:21.163Z,73.75
2022-10-14T11:46:18.208Z,73.08
2022-10-14T11:47:18.199Z,72.78
2022-10-14T11:48:18.193Z,73.14
2022-10-14T11:49:18.188Z,72.67
2022-10-14T11:50:18.190Z,73.38
2022-10-14T11:51:18.185Z,72.98
2022-10-14T11:52:18.182Z,72.64
2022-10-14T11:53:18.181Z,72.74
2022-10-14T11:54:18.172Z,73.08
2022-10-14T11:55:18.169Z,73.05
2022-10-14T11:56:18.160Z,73.08
2022-10-14T11:57:18.160Z,72.98
2022-10-14T11:58:18.159Z,73.68
2022-10-14T11:59:18.157Z,73.58
2022-10-14T12:00:18.189Z,73.18
2022-10-14T12:01:18.147Z,73.42
2022-10-14T12:02:18.174Z,72.91
2022-10-14T12:03:18.142Z,73.11
2022-10-14T12:04:18.137Z,73.32
2022-10-14T12:05:18.135Z,73.52
2022-10-14T12:06:18.138Z,73.42
2022-10-14T12:07:18.330Z,73.82
2022-10-14T12:08:18.122Z,73.92
2022-10-14T12:09:18.119Z,74.02
2022-10-14T12:10:18.128Z,73.18
2022-10-14T12:11:18.111Z,73.68
2022-10-14T12:12:18.110Z,73.18
2022-10-14T12:13:18.106Z,73.58
2022-10-14T12:14:18.101Z,73.25
2022-10-14T12:15:18.153Z,73.38
2022-10-14T12:16:18.108Z,73.08
2022-10-14T12:17:18.614Z,72.78
2022-10-14T12:18:18.084Z,72.58
2022-10-14T12:19:18.090Z,73.28
2022-10-14T12:20:18.077Z,73.28
2022-10-14T12:21:18.079Z,73.68
2022-10-14T12:22:18.079Z,73.48
2022-10-14T12:23:18.070Z,72.61
2022-10-14T12:24:18.066Z,73.32
2022-10-14T12:25:18.071Z,72.51
2022-10-14T12:26:18.068Z,72.71
2022-10-14T12:27:18.059Z,73.11
2022-10-14T12:28:18.083Z,73.72
2022-10-14T12:29:18.057Z,72.61
2022-10-14T12:30:18.047Z,73.22
2022-10-14T12:31:18.045Z,72.71
2022-10-14T12:32:18.067Z,73.22
2022-10-14T12:33:22.683Z,73.62
2022-10-14T12:34:18.034Z,73.92
2022-10-14T12:35:18.031Z,74.02
2022-10-14T12:36:18.029Z,73.52
2022-10-14T12:37:18.024Z,73.11
2022-10-14T12:38:18.022Z,73.92
2022-10-14T12:39:18.019Z,73.52
2022-10-14T12:40:18.012Z,72.34
2022-10-14T12:41:18.011Z,73.45
2022-10-14T12:42:18.006Z,73.35
2022-10-14T12:43:18.005Z,73.35
2022-10-14T12:44:18.006Z,73.49
2022-10-14T12:45:17.992Z,74.09
2022-10-14T12:46:17.994Z,73.69
2022-10-14T12:47:17.987Z,73.69
2022-10-14T12:48:17.983Z,73.96
2022-10-14T12:49:17.986Z,73.96
2022-10-14T12:50:17.978Z,73.85
2022-10-14T12:51:17.978Z,73.35
2022-10-14T12:52:17.970Z,73.72
2022-10-14T12:53:17.967Z,73.92
2022-10-14T12:54:17.967Z,72.75
2022-10-14T12:55:17.961Z,72.91
2022-10-14T12:56:17.955Z,72.91
2022-10-14T12:57:18.024Z,72.81